createdAt,value
2019-01-25T00:00:57.552Z,50.50
2019-01-25T00:03:45.176Z,57.57
2019-01-25T00:06:33.357Z,52.00
2019-01-25T00:09:21.225Z,53.63
2019-01-25T00:12:08.857Z,54.93
2019-01-25T00:14:56.800Z,54.73
2019-01-25T00:17:44.980Z,52.57
2019-01-25T00:20:32.735Z,53.40
2019-01-25T00:23:20.341Z,57.60
2019-01-25T00:26:08.155Z,58.40
2019-01-25T00:28:56.102Z,58.47
2019-01-25T00:31:43.824Z,54.00
2019-01-25T00:34:31.662Z,55.50
2019-01-25T00:37:19.458Z,57.70
2019-01-25T00:40:13.542Z,61.93
2019-01-25T00:43:01.580Z,58.37
2019-01-25T00:45:49.225Z,60.33
2019-01-25T00:48:37.055Z,55.60
2019-01-25T00:51:24.989Z,60.00
2019-01-25T00:54:12.791Z,54.13
2019-01-25T00:57:00.645Z,60.10
2019-01-25T00:59:48.228Z,60.50
2019-01-25T01:02:36.140Z,62.03
2019-01-25T01:05:24.312Z,60.13
2019-01-25T01:08:11.967Z,59.17
2019-01-25T01:10:59.699Z,62.27
2019-01-25T01:13:47.664Z,62.07
2019-01-25T01:16:35.728Z,62.53
2019-01-25T01:19:23.656Z,58.80
2019-01-25T01:22:11.309Z,61.93
2019-01-25T01:24:58.970Z,57.77
2019-01-25T01:27:47.181Z,56.30
2019-01-25T01:30:34.880Z,70.33
2019-01-25T01:33:22.511Z,69.90
2019-01-25T01:36:10.332Z,67.90
2019-01-25T01:38:58.176Z,67.33
2019-01-25T01:41:45.916Z,72.10
2019-01-25T01:44:33.612Z,64.33
2019-01-25T01:47:21.510Z,67.47
2019-01-25T01:50:12.306Z,68.80
2019-01-25T01:53:00.165Z,66.47
2019-01-25T01:55:48.116Z,69.73
2019-01-25T01:58:36.072Z,74.47
2019-01-25T02:01:23.828Z,67.80
2019-01-25T02:04:11.636Z,74.03
2019-01-25T02:06:59.316Z,68.50
2019-01-25T02:09:46.878Z,68.67
2019-01-25T02:12:35.148Z,74.37
2019-01-25T02:15:23.501Z,67.07
2019-01-25T02:18:11.165Z,71.17
2019-01-25T02:20:59.181Z,66.50
2019-01-25T02:23:46.993Z,71.50
2019-01-25T02:26:34.831Z,68.90
2019-01-25T02:29:22.286Z,71.90
2019-01-25T02:32:09.941Z,71.97
2019-01-25T02:34:57.692Z,70.30
2019-01-25T02:37:45.486Z,65.57
2019-01-25T02:40:39.007Z,63.33
2019-01-25T02:43:22.833Z,64.77
2019-01-25T02:46:10.907Z,66.33
2019-01-25T02:48:58.909Z,76.13
2019-01-25T02:51:46.572Z,67.90
2019-01-25T02:54:34.507Z,65.47
2019-01-25T02:57:22.444Z,74.03
2019-01-25T03:00:18.444Z,74.03
2019-01-25T03:03:06.450Z,73.90
2019-01-25T03:05:54.393Z,72.17
2019-01-25T03:08:42.397Z,73.20
2019-01-25T03:11:30.014Z,74.80
2019-01-25T03:14:17.818Z,75.03
2019-01-25T03:17:05.824Z,79.73
2019-01-25T03:19:53.600Z,73.50
2019-01-25T03:22:41.680Z,81.13
2019-01-25T03:25:29.727Z,72.20
2019-01-25T03:28:17.717Z,77.27
2019-01-25T03:31:05.642Z,75.97
2019-01-25T03:33:53.098Z,81.87
2019-01-25T03:36:41.205Z,71.67
2019-01-25T03:39:29.018Z,68.10
2019-01-25T03:42:16.697Z,74.00
2019-01-25T03:45:07.585Z,77.60
2019-01-25T03:47:55.265Z,71.43
2019-01-25T03:50:42.860Z,76.90
2019-01-25T03:53:30.499Z,82.47
2019-01-25T03:56:18.082Z,77.23
2019-01-25T03:59:06.141Z,70.10
2019-01-25T04:01:53.996Z,78.03
2019-01-25T04:04:41.664Z,77.37
2019-01-25T04:07:29.653Z,80.57
2019-01-25T04:10:19.958Z,82.93
2019-01-25T04:13:08.056Z,76.07
2019-01-25T04:15:55.647Z,80.30
2019-01-25T04:18:43.336Z,83.93
2019-01-25T04:21:31.073Z,89.37
2019-01-25T04:24:19.058Z,82.30
2019-01-25T04:27:06.848Z,85.90
2019-01-25T04:29:54.533Z,83.60
2019-01-25T04:32:42.476Z,86.53
2019-01-25T04:35:29.881Z,86.03
2019-01-25T04:38:17.829Z,81.70
2019-01-25T04:41:11.607Z,83.83
2019-01-25T04:43:55.415Z,82.90
2019-01-25T04:46:43.525Z,80.17
2019-01-25T04:49:34.459Z,82.93
2019-01-25T04:52:22.246Z,85.33
2019-01-25T04:55:18.119Z,75.23
2019-01-25T04:58:08.957Z,83.87
2019-01-25T05:01:01.585Z,86.97
2019-01-25T05:03:50.573Z,73.77
2019-01-25T05:06:38.463Z,81.53
2019-01-25T05:09:26.163Z,78.13
2019-01-25T05:12:13.885Z,81.97
2019-01-25T05:15:01.913Z,77.73
2019-01-25T05:17:54.695Z,80.87
2019-01-25T05:20:42.465Z,84.60
2019-01-25T05:23:30.437Z,78.13
2019-01-25T05:26:18.609Z,82.70
2019-01-25T05:29:06.498Z,82.83
2019-01-25T05:31:54.494Z,77.93
2019-01-25T05:34:42.301Z,86.17
2019-01-25T05:37:30.501Z,81.03
2019-01-25T05:40:26.267Z,78.03
2019-01-25T05:43:14.320Z,79.57
2019-01-25T05:46:01.928Z,86.33
2019-01-25T05:48:49.903Z,79.60
2019-01-25T05:51:37.541Z,80.70
2019-01-25T05:54:25.466Z,79.70
2019-01-25T05:57:13.160Z,79.10
2019-01-25T06:00:00.871Z,73.10
2019-01-25T06:02:48.925Z,84.30
2019-01-25T06:05:36.942Z,80.93
2019-01-25T06:08:31.770Z,85.53
2019-01-25T06:11:19.423Z,82.53
2019-01-25T06:14:08.088Z,80.37
2019-01-25T06:16:55.883Z,83.00
2019-01-25T06:19:43.729Z,75.23
2019-01-25T06:22:31.289Z,87.40
2019-01-25T06:25:19.161Z,78.20
2019-01-25T06:28:07.185Z,80.87
2019-01-25T06:30:55.619Z,86.10
2019-01-25T06:33:43.525Z,91.20
2019-01-25T06:36:31.067Z,86.13
2019-01-25T06:39:18.893Z,78.17
2019-01-25T06:42:07.006Z,82.77
2019-01-25T06:44:54.654Z,78.23
2019-01-25T06:47:42.561Z,83.63
2019-01-25T06:50:30.441Z,79.07
2019-01-25T06:53:18.594Z,75.73
2019-01-25T06:56:06.400Z,83.53
2019-01-25T06:59:01.512Z,82.10
2019-01-25T07:01:50.868Z,82.90
2019-01-25T07:04:40.601Z,77.50
2019-01-25T07:07:30.116Z,74.63
2019-01-25T07:10:19.862Z,76.93
2019-01-25T07:13:07.595Z,78.60
2019-01-25T07:15:55.689Z,77.20
2019-01-25T07:18:43.561Z,79.47
2019-01-25T07:21:31.301Z,74.50
2019-01-25T07:24:19.136Z,74.90
2019-01-25T07:27:06.928Z,75.87
2019-01-25T07:29:54.613Z,92.37
2019-01-25T07:32:42.521Z,77.70
2019-01-25T07:35:30.110Z,72.83
2019-01-25T07:38:17.739Z,73.63
2019-01-25T07:41:05.566Z,80.83
2019-01-25T07:43:53.405Z,83.07
2019-01-25T07:46:43.196Z,81.20
2019-01-25T07:49:30.917Z,77.53
2019-01-25T07:52:18.520Z,82.83
2019-01-25T07:55:12.014Z,83.03
2019-01-25T07:58:00.330Z,78.63
2019-01-25T08:00:48.273Z,72.87
2019-01-25T08:03:36.094Z,75.60
2019-01-25T08:06:23.889Z,76.80
2019-01-25T08:09:11.657Z,82.83
2019-01-25T08:12:07.009Z,82.53
2019-01-25T08:14:49.808Z,80.87
2019-01-25T08:17:37.405Z,68.97
2019-01-25T08:20:25.418Z,76.13
2019-01-25T08:23:13.182Z,65.50
2019-01-25T08:26:01.022Z,71.60
2019-01-25T08:28:48.901Z,66.10
2019-01-25T08:31:36.608Z,64.37
2019-01-25T08:34:24.429Z,62.20
2019-01-25T08:37:12.656Z,59.83
2019-01-25T08:40:00.608Z,62.77
2019-01-25T08:42:48.264Z,68.20
2019-01-25T08:45:35.813Z,62.10
2019-01-25T08:48:23.768Z,64.93
2019-01-25T08:51:11.715Z,57.43
2019-01-25T08:53:59.730Z,62.70
2019-01-25T08:56:47.418Z,64.97
2019-01-25T08:59:35.194Z,59.73
2019-01-25T09:02:23.074Z,61.80
2019-01-25T09:05:11.532Z,64.83
2019-01-25T09:07:59.272Z,65.03
2019-01-25T09:10:47.262Z,67.10
2019-01-25T09:13:35.480Z,61.50
2019-01-25T09:16:23.428Z,61.77
2019-01-25T09:19:11.194Z,64.97
2019-01-25T09:21:58.981Z,60.93
2019-01-25T09:24:46.940Z,64.17
2019-01-25T09:27:34.617Z,63.07
2019-01-25T09:30:24.577Z,60.10
2019-01-25T09:33:12.297Z,59.73
2019-01-25T09:35:59.933Z,58.43
2019-01-25T09:38:47.885Z,56.13
2019-01-25T09:41:35.777Z,54.83
2019-01-25T09:44:23.455Z,55.73
2019-01-25T09:47:11.119Z,53.23
2019-01-25T09:49:59.020Z,55.93
2019-01-25T09:52:47.429Z,57.40
2019-01-25T09:55:35.145Z,58.60
2019-01-25T09:58:23.072Z,57.47
2019-01-25T10:01:11.104Z,60.70
2019-01-25T10:03:58.582Z,57.97
2019-01-25T10:06:46.444Z,58.27
2019-01-25T10:09:34.773Z,62.87
2019-01-25T10:12:22.453Z,64.30
2019-01-25T10:15:30.089Z,57.60
2019-01-25T10:18:17.552Z,62.30
2019-01-25T10:21:05.524Z,59.47
2019-01-25T10:23:53.098Z,55.53
2019-01-25T10:26:40.971Z,63.13
2019-01-25T10:29:28.997Z,62.67
2019-01-25T10:32:17.110Z,61.97
2019-01-25T10:35:07.965Z,55.57
2019-01-25T10:37:55.634Z,63.43
2019-01-25T10:40:43.244Z,85.43
2019-01-25T10:43:30.930Z,60.97
2019-01-25T10:46:18.214Z,67.13
2019-01-25T10:49:05.877Z,60.33
2019-01-25T10:51:53.780Z,60.60
2019-01-25T10:54:41.877Z,61.40
2019-01-25T10:57:29.755Z,55.23
2019-01-25T11:00:21.870Z,63.37
2019-01-25T11:03:09.889Z,59.97
2019-01-25T11:05:57.397Z,57.40
2019-01-25T11:08:45.540Z,55.93
2019-01-25T11:11:33.205Z,59.33
2019-01-25T11:14:21.165Z,59.93
2019-01-25T11:17:09.128Z,54.33
2019-01-25T11:19:57.280Z,55.60
2019-01-25T11:22:45.193Z,49.10
2019-01-25T11:25:35.772Z,47.47
2019-01-25T11:28:23.824Z,48.67
2019-01-25T11:31:11.513Z,49.77
2019-01-25T11:33:59.364Z,49.87
2019-01-25T11:36:47.202Z,53.20
2019-01-25T11:39:35.297Z,52.97
2019-01-25T11:42:23.284Z,51.67
2019-01-25T11:45:12.310Z,50.07
2019-01-25T11:48:00.308Z,50.23
2019-01-25T11:50:48.219Z,47.03
2019-01-25T11:53:35.903Z,48.87
2019-01-25T11:56:23.913Z,49.67
2019-01-25T11:59:11.486Z,46.13
2019-01-25T12:01:59.392Z,42.27
2019-01-25T12:04:47.165Z,39.10
2019-01-25T12:07:34.920Z,39.03
2019-01-25T12:10:27.346Z,35.37
2019-01-25T12:13:16.340Z,41.20
2019-01-25T12:16:04.876Z,41.77
2019-01-25T12:18:52.797Z,41.90
2019-01-25T12:21:40.625Z,40.57
2019-01-25T12:24:28.277Z,32.33
2019-01-25T12:27:16.033Z,35.27
2019-01-25T12:30:21.835Z,35.23
2019-01-25T12:33:09.857Z,37.37
2019-01-25T12:35:57.896Z,35.13
2019-01-25T12:38:45.691Z,35.90
2019-01-25T12:41:33.576Z,36.03
2019-01-25T12:44:21.472Z,34.57
2019-01-25T12:47:09.167Z,34.67
2019-01-25T12:49:56.814Z,35.10
2019-01-25T12:52:44.464Z,35.60
2019-01-25T12:55:32.908Z,60.97
2019-01-25T12:58:20.662Z,47.57
2019-01-25T13:01:09.781Z,54.07
2019-01-25T13:03:58.367Z,49.23
2019-01-25T13:06:46.129Z,42.57
2019-01-25T13:09:33.929Z,46.17
2019-01-25T13:12:25.165Z,45.67
2019-01-25T13:15:13.386Z,37.40
2019-01-25T13:18:01.322Z,47.37
2019-01-25T13:20:49.231Z,61.50
2019-01-25T13:23:37.041Z,54.20
2019-01-25T13:26:24.981Z,56.17
2019-01-25T13:29:12.944Z,49.93
2019-01-25T13:32:00.598Z,44.93
2019-01-25T13:34:48.425Z,32.93
2019-01-25T13:37:36.310Z,39.47
2019-01-25T13:40:25.880Z,37.70
2019-01-25T13:43:13.911Z,61.50
2019-01-25T13:46:02.194Z,38.47
2019-01-25T13:48:49.827Z,36.77
2019-01-25T13:51:37.431Z,35.33
2019-01-25T13:54:28.814Z,37.03
2019-01-25T13:57:15.993Z,35.33
2019-01-25T14:00:09.709Z,35.07
2019-01-25T14:02:57.602Z,34.47
2019-01-25T14:05:45.525Z,43.73
2019-01-25T14:08:33.474Z,34.57
2019-01-25T14:11:21.388Z,38.17
2019-01-25T14:14:10.952Z,34.83
2019-01-25T14:16:58.620Z,31.33
2019-01-25T14:19:46.495Z,35.07
2019-01-25T14:22:34.183Z,54.73
2019-01-25T14:25:22.241Z,32.63
2019-01-25T14:28:10.189Z,32.73
2019-01-25T14:30:58.094Z,33.97
2019-01-25T14:33:45.823Z,27.80
2019-01-25T14:36:34.069Z,36.60
2019-01-25T14:39:21.949Z,25.67
2019-01-25T14:42:09.618Z,28.33
2019-01-25T14:44:57.359Z,28.00
2019-01-25T14:47:45.535Z,25.83
2019-01-25T14:50:33.326Z,28.43
2019-01-25T14:53:21.253Z,29.27
2019-01-25T14:56:09.021Z,26.63
2019-01-25T14:58:57.177Z,25.97
2019-01-25T15:01:45.001Z,23.87
2019-01-25T15:04:32.630Z,26.53
2019-01-25T15:07:20.409Z,24.33
2019-01-25T15:10:11.397Z,29.23
2019-01-25T15:12:59.241Z,24.47
2019-01-25T15:15:47.124Z,25.33
2019-01-25T15:18:34.945Z,24.23
2019-01-25T15:21:22.509Z,30.23
2019-01-25T15:24:10.593Z,28.80
2019-01-25T15:26:58.318Z,27.03
2019-01-25T15:29:46.012Z,28.00
2019-01-25T15:32:33.985Z,27.37
2019-01-25T15:35:22.207Z,24.23
2019-01-25T15:38:09.961Z,27.73
2019-01-25T15:40:57.827Z,28.87
2019-01-25T15:43:45.733Z,27.70
2019-01-25T15:46:33.689Z,30.87
2019-01-25T15:49:21.232Z,27.30
2019-01-25T15:52:09.250Z,25.00
2019-01-25T15:54:57.254Z,29.17
2019-01-25T15:57:44.857Z,28.70
2019-01-25T16:00:32.741Z,29.47
2019-01-25T16:03:20.408Z,23.77
2019-01-25T16:06:08.264Z,27.77
2019-01-25T16:08:56.193Z,27.73
2019-01-25T16:11:44.321Z,29.00
2019-01-25T16:14:32.252Z,25.73
2019-01-25T16:17:19.972Z,25.13
2019-01-25T16:20:11.276Z,25.67
2019-01-25T16:22:58.886Z,27.70
2019-01-25T16:25:46.792Z,27.00
2019-01-25T16:28:34.719Z,24.37
2019-01-25T16:31:22.796Z,27.00
2019-01-25T16:34:10.485Z,24.97
2019-01-25T16:36:58.162Z,26.10
2019-01-25T16:39:45.853Z,25.63
2019-01-25T16:42:34.024Z,26.77
2019-01-25T16:45:24.828Z,21.87
2019-01-25T16:48:12.659Z,22.97
2019-01-25T16:51:00.286Z,23.00
2019-01-25T16:53:48.064Z,25.37
2019-01-25T16:56:35.675Z,24.13
2019-01-25T16:59:23.558Z,21.43
2019-01-25T17:02:11.265Z,21.20
2019-01-25T17:04:59.119Z,20.63
2019-01-25T17:07:47.012Z,18.33
2019-01-25T17:10:35.037Z,17.90
2019-01-25T17:13:22.946Z,16.73
2019-01-25T17:16:11.060Z,14.70
2019-01-25T17:18:58.981Z,14.57
2019-01-25T17:21:46.608Z,16.47
2019-01-25T17:24:34.537Z,17.30
2019-01-25T17:27:22.241Z,16.67
2019-01-25T17:30:15.598Z,18.73
2019-01-25T17:33:04.157Z,16.03
2019-01-25T17:35:51.752Z,15.83
2019-01-25T17:38:39.397Z,20.57
2019-01-25T17:41:27.353Z,21.93
2019-01-25T17:44:14.977Z,47.47
2019-01-25T17:47:02.542Z,30.73
2019-01-25T17:49:50.479Z,20.80
2019-01-25T17:52:38.236Z,17.87
2019-01-25T17:55:25.990Z,17.97
2019-01-25T17:58:13.528Z,23.70
2019-01-25T18:01:01.280Z,28.50
2019-01-25T18:03:49.316Z,20.13
2019-01-25T18:06:36.925Z,22.07
2019-01-25T18:09:24.878Z,21.30
2019-01-25T18:12:12.757Z,21.67
2019-01-25T18:15:01.399Z,19.03
2019-01-25T18:17:49.134Z,17.40
2019-01-25T18:20:37.278Z,17.37
2019-01-25T18:23:25.677Z,17.83
2019-01-25T18:26:15.069Z,15.60
2019-01-25T18:29:02.629Z,18.47
2019-01-25T18:31:51.144Z,16.93
2019-01-25T18:34:39.146Z,16.63
2019-01-25T18:37:27.045Z,17.13
2019-01-25T18:40:14.841Z,17.63
2019-01-25T18:43:02.566Z,18.50
2019-01-25T18:45:50.916Z,23.63
2019-01-25T18:48:38.678Z,19.37
2019-01-25T18:51:26.133Z,20.87
2019-01-25T18:54:13.884Z,20.90
2019-01-25T18:57:01.596Z,20.50
2019-01-25T18:59:49.442Z,19.83
2019-01-25T19:02:37.275Z,21.83
2019-01-25T19:05:24.947Z,19.43
2019-01-25T19:08:12.726Z,20.20
2019-01-25T19:11:00.435Z,23.30
2019-01-25T19:13:48.305Z,21.90
2019-01-25T19:16:35.929Z,25.93
2019-01-25T19:19:23.613Z,20.50
2019-01-25T19:22:11.647Z,19.13
2019-01-25T19:24:59.483Z,21.60
2019-01-25T19:27:47.096Z,20.47
2019-01-25T19:30:40.706Z,20.17
2019-01-25T19:33:28.393Z,22.13
2019-01-25T19:36:18.005Z,20.23
2019-01-25T19:39:08.505Z,22.30
2019-01-25T19:41:55.973Z,19.03
2019-01-25T19:44:43.598Z,18.73
2019-01-25T19:47:31.328Z,21.00
2019-01-25T19:50:20.929Z,18.87
2019-01-25T19:53:08.841Z,21.23
2019-01-25T19:55:56.601Z,18.27
2019-01-25T19:58:45.782Z,20.73
2019-01-25T20:01:34.161Z,18.50
2019-01-25T20:04:22.519Z,18.00
2019-01-25T20:07:10.301Z,22.43
2019-01-25T20:09:58.157Z,19.93
2019-01-25T20:12:46.290Z,20.07
2019-01-25T20:15:34.395Z,18.60
2019-01-25T20:18:22.559Z,18.33
2019-01-25T20:21:10.648Z,19.03
2019-01-25T20:23:58.510Z,18.30
2019-01-25T20:26:48.396Z,17.50
2019-01-25T20:29:36.317Z,22.10
2019-01-25T20:32:27.354Z,20.07
2019-01-25T20:35:18.353Z,17.97
2019-01-25T20:38:07.148Z,22.23
2019-01-25T20:40:54.884Z,17.00
2019-01-25T20:43:43.358Z,20.17
2019-01-25T20:46:31.326Z,22.17
2019-01-25T20:49:19.201Z,19.23
2019-01-25T20:52:13.181Z,22.87
2019-01-25T20:55:00.845Z,23.13
2019-01-25T20:57:52.819Z,20.97
2019-01-25T21:00:41.264Z,19.03
2019-01-25T21:03:38.098Z,20.73
2019-01-25T21:06:28.639Z,19.23
2019-01-25T21:09:16.398Z,18.97
2019-01-25T21:12:04.402Z,18.47
2019-01-25T21:14:52.346Z,20.00
2019-01-25T21:17:40.471Z,17.87
2019-01-25T21:20:36.885Z,17.63
2019-01-25T21:23:24.605Z,19.27
2019-01-25T21:26:12.434Z,16.47
2019-01-25T21:29:00.365Z,20.23
2019-01-25T21:31:48.234Z,16.10
2019-01-25T21:34:36.102Z,17.70
2019-01-25T21:37:23.759Z,16.73
2019-01-25T21:40:19.781Z,16.10
2019-01-25T21:43:07.698Z,16.27
2019-01-25T21:45:55.564Z,16.07
2019-01-25T21:48:43.265Z,17.33
2019-01-25T21:51:30.655Z,17.30
2019-01-25T21:54:18.573Z,15.50
2019-01-25T21:57:06.208Z,17.03
2019-01-25T21:59:54.138Z,16.57
2019-01-25T22:02:42.051Z,17.53
2019-01-25T22:05:30.481Z,17.27
2019-01-25T22:08:18.090Z,16.33
2019-01-25T22:11:05.713Z,19.93
2019-01-25T22:13:53.371Z,15.93
2019-01-25T22:16:41.248Z,16.67
2019-01-25T22:19:28.916Z,16.03
2019-01-25T22:22:16.634Z,16.40
2019-01-25T22:25:07.470Z,16.27
2019-01-25T22:27:56.081Z,16.47
2019-01-25T22:30:43.672Z,14.60
2019-01-25T22:33:31.203Z,17.33
2019-01-25T22:36:19.102Z,15.93
2019-01-25T22:39:07.954Z,14.63
2019-01-25T22:41:56.018Z,16.83
2019-01-25T22:44:43.748Z,14.97
2019-01-25T22:47:31.549Z,14.30
2019-01-25T22:50:24.976Z,15.30
2019-01-25T22:53:13.291Z,19.10
2019-01-25T22:56:01.250Z,18.90
2019-01-25T22:58:49.153Z,17.60
2019-01-25T23:01:37.090Z,16.53
2019-01-25T23:04:33.525Z,19.57
2019-01-25T23:07:21.156Z,16.23
2019-01-25T23:10:10.649Z,16.93
2019-01-25T23:12:58.209Z,16.40
2019-01-25T23:15:46.297Z,17.70
2019-01-25T23:18:33.933Z,18.43
2019-01-25T23:21:21.623Z,17.43
2019-01-25T23:24:09.317Z,15.57
2019-01-25T23:26:56.974Z,16.13
2019-01-25T23:29:44.946Z,17.80
2019-01-25T23:32:32.807Z,16.83
2019-01-25T23:35:20.885Z,16.33
2019-01-25T23:38:08.784Z,16.33
2019-01-25T23:40:56.532Z,16.50
2019-01-25T23:43:44.392Z,19.60
2019-01-25T23:46:32.485Z,18.03
2019-01-25T23:49:20.334Z,19.27
2019-01-25T23:52:08.160Z,20.57
2019-01-25T23:55:07.902Z,17.30
2019-01-25T23:57:55.743Z,18.20
